• Join FlightAware (Why Join?)
  • Login
  • US Flag 
09:55PM EDT


 

Airport Tracker/Info


-or-


 

Live Flight TrackerFlight Track Log ✈ RPA3159 ✈ 11-May-2013 ✈ KPHL - KMSP

Flight Track Log - Related Links

Times and Time Zones

All times are in EDT time to prevent confusion due to time zone crossing. See the RPA3159 flight status page for this flight to view local times or setup timezone preferences in your user account.

Time Position Orientation Groundspeed Altitude Reporting Facility
EDT Latitude Longitude Course Direction KTS MPH feet Rate Location/Type
01:52PM 39.8667 -75.2833 307° West 152 175 1,000  Level Philadelphia TRACON
01:53PM 39.8500 -75.3333 247° West 187 215 1,800 1,860 Climbing Philadelphia TRACON
01:54PM 40.1020 -75.4520 323° Northwest  Level FlightAware Approximate
01:54PM 39.8333 -75.4000 252° West 225 259 4,200  Level Philadelphia TRACON
01:55PM 40.1805 -75.5305 323° Northwest  Level FlightAware Approximate
01:55PM 39.9000 -75.4500 330° Northwest 302 348 7,000  Level Philadelphia TRACON
01:55PM 39.9200 -75.4642 331° Northwest 292 336 8,300 2,880 Climbing New York Center
01:56PM 40.2547 -75.6069 311° West  Level FlightAware Approximate
01:56PM 40.0067 -75.4917 346° North 303 349 11,400  Level New York Center
01:57PM 40.3194 -75.7048 307° West  Level FlightAware Approximate
01:57PM 40.0908 -75.5192 346° North 341 392 13,100  Level New York Center
01:58PM 40.1764 -75.5686 336° Northwest 350 403 13,200 1,320 Climbing New York Center
01:59PM 40.2342 -75.6378 318° Northwest 330 380 15,900 1,920 Climbing New York Center
02:00PM 40.3017 -75.7186 318° Northwest 324 373 17,000 540 Climbing New York Center
02:01PM 40.3789 -75.8114 318° Northwest 339 390 17,000  Level New York Center
02:02PM 40.4397 -75.9031 311° West 339 390 17,000  Level New York Center
02:03PM 40.4617 -76.0167 284° West 313 360 17,000 120 Level New York Center
02:04PM 40.4781 -76.1189 282° West 318 366 17,300 1,260 Climbing New York Center
02:05PM 40.4933 -76.2375 280° West 318 366 19,600 2,040 Climbing New York Center
02:06PM 40.5131 -76.3536 283° West 323 372 21,500 1,680 Climbing New York Center
02:07PM 40.5319 -76.4781 281° West 328 377 23,100 1,560 Climbing New York Center
02:08PM 40.5531 -76.6028 283° West 340 391 24,700 2,100 Climbing New York Center
02:09PM 40.5861 -76.7314 289° West 346 398 27,200 1,860 Climbing New York Center
02:10PM 40.6175 -76.8517 289° West 346 398 28,400 960 Climbing New York Center
02:11PM 40.6528 -76.9781 290° West 353 406 29,200 660 Climbing New York Center
02:12PM 40.6875 -77.1097 289° West 363 418 29,800 840 Climbing New York Center
02:13PM 40.7236 -77.2500 289° West 379 436 31,000 1,200 Climbing New York Center
02:14PM 40.7547 -77.3653 290° West 392 451 32,300 840 Climbing New York Center
02:16PM 40.8233 -77.6333 289° West 383 441 33,500 540 Climbing Cleveland Center
02:17PM 40.8581 -77.7664 289° West 383 441 34,000 240 Climbing Cleveland Center
02:18PM 40.8903 -77.8994 288° West 376 433 34,000  Level Cleveland Center
02:19PM 40.9161 -78.0194 286° West 376 433 34,000  Level Cleveland Center
02:20PM 40.9336 -78.1506 280° West 376 433 34,000  Level Cleveland Center
02:21PM 40.9531 -78.2931 280° West 371 427 34,000  Level Cleveland Center
02:22PM 40.9703 -78.4269 280° West 371 427 34,000  Level Cleveland Center
02:23PM 40.9872 -78.5586 280° West 366 421 34,000  Level Cleveland Center
02:24PM 41.0022 -78.6931 278° West 366 421 34,000  Level Cleveland Center
02:25PM 41.0167 -78.8247 278° West 371 427 34,000  Level Cleveland Center
02:26PM 41.0333 -78.9617 279° West 371 427 34,000  Level Cleveland Center
02:27PM 41.0478 -79.0936 278° West 371 427 34,000  Level Cleveland Center
02:28PM 41.0639 -79.2281 279° West 371 427 34,000  Level Cleveland Center
02:29PM 41.0778 -79.3572 278° West 371 427 34,000  Level Cleveland Center
02:30PM 41.0939 -79.4922 279° West 371 427 34,000  Level Cleveland Center
02:31PM 41.1075 -79.6242 278° West 371 427 34,000  Level Cleveland Center
02:32PM 41.1231 -79.7561 279° West 371 427 34,000  Level Cleveland Center
02:33PM 41.1344 -79.8911 276° West 366 421 34,000  Level Cleveland Center
02:34PM 41.1519 -80.0178 280° West 366 421 34,000  Level Cleveland Center
02:35PM 41.1650 -80.1392 278° West 366 421 34,000  Level Cleveland Center
02:36PM 41.1800 -80.2714 279° West 371 427 34,000  Level Cleveland Center
02:37PM 41.1906 -80.4175 276° West 371 427 34,000  Level Cleveland Center
02:38PM 41.2053 -80.5500 278° West 366 421 34,000  Level Cleveland Center
02:39PM 41.2200 -80.6825 278° West 366 421 34,000  Level Cleveland Center
02:40PM 41.2322 -80.8150 277° West 371 427 34,000  Level Cleveland Center
02:41PM 41.2422 -80.9447 276° West 371 427 34,000  Level Cleveland Center
02:42PM 41.2669 -81.0611 286° West 366 421 34,000  Level Cleveland Center
02:43PM 41.3058 -81.1883 292° West 366 421 34,000  Level Cleveland Center
02:44PM 41.3428 -81.3133 292° West 366 421 34,000  Level Cleveland Center
02:45PM 41.3814 -81.4356 293° West 371 427 34,000  Level Cleveland Center
02:46PM 41.4158 -81.5633 290° West 371 427 34,000  Level Cleveland Center
02:47PM 41.4522 -81.6886 291° West 371 427 34,000  Level Cleveland Center
02:48PM 41.4906 -81.8167 292° West 371 427 34,000  Level Cleveland Center
02:49PM 41.5244 -81.9422 290° West 366 421 34,000  Level Cleveland Center
02:50PM 41.5606 -82.0650 291° West 366 421 34,000  Level Cleveland Center
02:51PM 41.5964 -82.1908 291° West 371 427 34,000  Level Cleveland Center
02:52PM 41.6300 -82.3139 290° West 366 421 34,000  Level Cleveland Center
02:53PM 41.6656 -82.4483 290° West 366 421 34,000  Level Cleveland Center
02:54PM 41.7008 -82.5744 291° West 361 415 34,000  Level Cleveland Center
02:55PM 41.7361 -82.6981 291° West 361 415 34,000  Level Cleveland Center
02:56PM 41.7714 -82.8217 291° West 356 410 34,000  Level Cleveland Center
02:57PM 41.8042 -82.9453 290° West 356 410 34,000  Level Cleveland Center
02:58PM 41.8372 -83.0664 290° West 350 403 34,000  Level Cleveland Center
02:59PM 41.8700 -83.1875 290° West 350 403 34,000  Level Cleveland Center
03:00PM 41.9044 -83.3119 290° West 350 403 34,000  Level Cleveland Center
03:01PM 41.9369 -83.4333 290° West 350 403 34,000  Level Cleveland Center
03:02PM 41.9675 -83.5519 289° West 350 403 34,000  Level Cleveland Center
03:03PM 41.9958 -83.6594 290° West 350 403 34,000  Level Cleveland Center
03:04PM 42.0281 -83.7783 290° West 350 403 34,000  Level Cleveland Center
03:05PM 42.0600 -83.9003 289° West 350 403 34,000  Level Cleveland Center
03:06PM 42.0900 -84.0167 289° West 350 403 34,000  Level Cleveland Center
03:07PM 42.1236 -84.1389 290° West 350 403 34,000  Level Cleveland Center
03:08PM 42.1533 -84.2581 289° West 350 403 34,000  Level Cleveland Center
03:10PM 42.2017 -84.4383 290° West 341 392 34,000  Level Chicago Center
03:11PM 42.2322 -84.5550 290° West 334 384 34,000  Level Chicago Center
03:12PM 42.2619 -84.6736 289° West 333 383 34,000  Level Chicago Center
03:13PM 42.2989 -84.8136 290° West 332 382 34,000  Level Chicago Center
03:14PM 42.3386 -84.9275 295° West 337 388 34,000  Level Chicago Center
03:15PM 42.3817 -85.0417 297° West 339 390 34,000  Level Chicago Center
03:16PM 42.4242 -85.1569 297° West 343 395 34,000  Level Chicago Center
03:17PM 42.4661 -85.2700 297° West 339 390 34,000  Level Chicago Center
03:18PM 42.5081 -85.3825 297° West 337 388 34,000  Level Chicago Center
03:19PM 42.5497 -85.4950 297° West 335 386 34,000  Level Chicago Center
03:20PM 42.6011 -85.6331 297° West 340 391 34,000  Level Chicago Center
03:21PM 42.6417 -85.7472 296° West 338 389 34,000  Level Chicago Center
03:22PM 42.6842 -85.8608 297° West 336 387 34,000  Level Chicago Center
03:23PM 42.7275 -85.9781 297° West 344 396 34,000  Level Chicago Center
03:24PM 42.7708 -86.0981 296° West 351 404 34,000  Level Chicago Center
03:25PM 42.8142 -86.2189 296° West 351 404 34,000  Level Chicago Center
03:26PM 42.8583 -86.3367 297° West 348 400 34,000  Level Chicago Center
03:27PM 42.9003 -86.4564 296° West 349 402 34,000  Level Chicago Center
03:28PM 42.9425 -86.5761 296° West 349 402 34,000  Level Chicago Center
03:29PM 42.9850 -86.6956 296° West 350 403 34,000  Level Chicago Center
03:30PM 43.0381 -86.8431 296° West 358 412 34,000  Level Chicago Center
03:31PM 43.0806 -86.9678 295° West 362 417 34,000  Level Chicago Center
03:32PM 43.1231 -87.0892 296° West 356 410 34,000  Level Chicago Center
03:33PM 43.1661 -87.2117 296° West 356 410 34,000  Level Chicago Center
03:34PM 43.2083 -87.3306 296° West 349 402 34,000  Level Chicago Center
03:35PM 43.2492 -87.4506 295° West 350 403 34,000  Level Chicago Center
03:36PM 43.2992 -87.5956 295° West 358 412 34,000  Level Chicago Center
03:37PM 43.3419 -87.7197 295° West 360 414 34,000  Level Chicago Center
03:38PM 43.3847 -87.8436 295° West 358 412 34,000  Level Chicago Center
03:39PM 43.4264 -87.9681 295° West 359 413 34,000  Level Chicago Center
03:40PM 43.4694 -88.0944 295° West 362 417 34,000  Level Chicago Center
03:41PM 43.5117 -88.2214 295° West 366 421 34,000  Level Chicago Center
03:42PM 43.5606 -88.3697 294° West 368 423 34,000  Level Chicago Center
03:43PM 43.6028 -88.4947 295° West 368 423 34,000  Level Chicago Center
03:45PM 43.6444 -88.6208 295° West 366 421 34,000  Level Chicago Center
03:45PM 43.6586 -88.6622 295° West 365 420 34,000  Level Minneapolis Center
03:46PM 43.6994 -88.7869 294° West 362 417 34,000  Level Minneapolis Center
03:47PM 43.7411 -88.9144 294° West 363 418 34,000  Level Minneapolis Center
03:48PM 43.7828 -89.0419 294° West 366 421 34,000  Level Minneapolis Center
03:49PM 43.8239 -89.1681 294° West 361 415 34,000  Level Minneapolis Center
03:50PM 43.8639 -89.2961 293° West 363 418 34,000  Level Minneapolis Center
03:51PM 43.9122 -89.4444 294° West 362 417 34,000  Level Minneapolis Center
03:52PM 43.9522 -89.5708 294° West 360 414 34,000  Level Minneapolis Center
03:53PM 43.9936 -89.6981 294° West 362 417 34,000  Level Minneapolis Center
03:54PM 44.0333 -89.8253 294° West 359 413 34,000  Level Minneapolis Center
03:55PM 44.0719 -89.9506 293° West 355 409 34,000  Level Minneapolis Center
03:56PM 44.1317 -90.0603 307° West 355 409 34,000  Level Minneapolis Center
03:57PM 44.1936 -90.1756 307° West 369 425 34,000  Level Minneapolis Center
03:58PM 44.2453 -90.2972 301° West 366 421 34,000 -120 Level Minneapolis Center
03:59PM 44.3050 -90.4411 300° West 368 423 33,800 -840 Descending Minneapolis Center
04:00PM 44.3567 -90.5639 301° West 366 421 32,300 -1,500 Descending Minneapolis Center
04:01PM 44.4053 -90.6822 300° West 355 409 30,800 -1,500 Descending Minneapolis Center
04:02PM 44.4561 -90.8064 300° West 364 419 29,300 -1,620 Descending Minneapolis Center
04:03PM 44.5106 -90.9378 300° West 365 420 27,600 -1,680 Descending Minneapolis Center
04:04PM 44.5611 -91.0658 299° West 371 427 26,000 -1,620 Descending Minneapolis Center
04:05PM 44.6150 -91.1967 300° West 385 443 24,400 -1,440 Descending Minneapolis Center
04:06PM 44.6556 -91.2969 300° West 379 436 23,100 -1,620 Descending Minneapolis Center
04:07PM 44.7147 -91.4428 300° West 364 419 21,200 -1,680 Descending Minneapolis Center
04:08PM 44.7622 -91.5622 299° West 356 410 19,700 -1,500 Descending Minneapolis Center
04:09PM 44.8092 -91.6792 300° West 348 400 18,200 -1,620 Descending Minneapolis Center
04:10PM 44.8633 -91.8200 299° West 345 397 16,400 -1,620 Descending Minneapolis Center
04:11PM 44.9100 -91.9328 300° West 336 387 15,000 -1,380 Descending Minneapolis Center
04:12PM 44.9522 -92.0431 298° West 324 373 13,600 -1,380 Descending Minneapolis Center
04:13PM 44.9953 -92.1525 299° West 320 368 12,200 -1,320 Descending Minneapolis Center
04:14PM 45.0372 -92.2594 299° West 314 361 10,900 -660 Descending Minneapolis Center
04:15PM 45.0350 -92.3814 269° West 320 368 10,900  Level Minneapolis Center
04:17PM 45.0142 -92.5044 257° West 324 373 11,000 -960 Climbing Minneapolis Center
04:18PM 44.9739 -92.6228 244° Southwest 276 318 9,000 -1,800 Descending Minneapolis Center
04:19PM 44.9428 -92.7153 245° Southwest 262 302 7,300 -1,020 Descending Minneapolis Center
04:20PM 44.9128 -92.8025 244° Southwest 249 287 7,000 -840 Descending Minneapolis Center
04:21PM 44.8856 -92.8817 244° Southwest 228 262 5,700 -1,260 Descending Minneapolis Center
04:22PM 44.8597 -92.9558 244° Southwest 214 246 4,500 -900 Descending Minneapolis Center
04:23PM 44.8342 -93.0294 244° Southwest 211 243 3,900 -540 Descending Minneapolis Center
04:24PM 44.8319 -93.0792 266° West 164 189 3,500 -420 Descending Minneapolis Center